首页
METAR-TAF:

METAR-TAF

机场 :

奥黑尔国际机场

芝加哥, 伊利诺伊州, 美国

纬度: 41-58-47N, 经度: 087-54-16W, 海拔: 203米

当前天气观测

该预报发布于45分钟前的11:51 UTC
风速5节,风向北转西北
温度 21°C
湿度 94%
气压 1017 hPa
能見度: 6.4公里
少量云层高于600英尺
散云层高于25000英尺
轻雾

METAR: KORD 181151Z 34005KT 4SM BR FEW006 SCT250 21/20 A3002 RMK AO2 SLP162 T02110200 10228 20211 53005

时间: 07:36 (12:36 UTC)

预报

该预报发布于1小时和13分钟前的11:23 UTC
预报有效从18日的 12点(UTC)到 19日的 18点(UTC)
风速4节,风向
能見度: 6.4公里
散云层高于600英尺
散云层高于25000英尺
轻雾, 浅雾
从 18日的 1330点(UTC)
风速6节,风向
能見度: 10公里
散云层高于1500英尺
从 18日的 1600点(UTC)
风速10节,风向东北
能見度: 10公里
散云层高于25000英尺
从 19日的 0200点(UTC)
风速3节,风向多变
能見度: 10公里
少量云层高于20000英尺
短暂存在
从 19日的 08点(UTC)到 19日的 12点(UTC)
能見度: 4.8公里
轻雾, 浅雾

TAF: KORD 181123Z 1812/1918 36004KT 4SM BR MIFG SCT006 SCT250 FM181330 01006KT P6SM SCT015 FM181600 04010KT P6SM SCT250 FM190200 VRB03KT P6SM FEW200 TEMPO 1908/1912 3SM BR MIFG

超过4000个机场的气象观测和天气预报(METAR&TAF报告)。

可查询的气象台以黄色和红色小点在地图上表示。

将鼠标移到小点上方,可查看气象台名称。

然后点击查看天气观测和预报。

如需切换地图:点击带黑十字的绿色按钮放大地图;点击带横线的绿色按钮缩小地图;或者点击绿色箭头查看邻近地区的地图。


METAR-TAF: